createdAt,value
2022-10-08T00:01:16.789Z,15.43
2022-10-08T00:03:47.345Z,14.30
2022-10-08T00:06:25.405Z,16.35
2022-10-08T00:09:01.793Z,16.15
2022-10-08T00:11:32.589Z,22.48
2022-10-08T00:14:02.158Z,16.95
2022-10-08T00:16:37.443Z,19.95
2022-10-08T00:19:08.076Z,16.52
2022-10-08T00:21:37.824Z,19.98
2022-10-08T00:24:07.330Z,19.27
2022-10-08T00:26:41.202Z,18.55
2022-10-08T00:29:13.733Z,19.08
2022-10-08T00:31:44.003Z,16.77
2022-10-08T00:34:14.005Z,20.83
2022-10-08T00:36:41.866Z,22.65
2022-10-08T00:39:13.619Z,21.52
2022-10-08T00:41:44.112Z,17.40
2022-10-08T00:44:55.542Z,20.70
2022-10-08T00:47:25.602Z,18.23
2022-10-08T00:49:56.115Z,16.70
2022-10-08T00:52:25.873Z,17.98
2022-10-08T00:54:53.241Z,19.33
2022-10-08T00:57:21.409Z,20.85
2022-10-08T00:59:49.008Z,21.50
2022-10-08T01:02:16.694Z,18.30
2022-10-08T01:04:44.266Z,20.40
2022-10-08T01:07:26.584Z,17.20
2022-10-08T01:10:10.635Z,20.20
2022-10-08T01:12:49.120Z,21.15
2022-10-08T01:15:32.784Z,21.20
2022-10-08T01:18:03.632Z,17.60
2022-10-08T01:20:48.912Z,15.43
2022-10-08T01:23:21.997Z,14.30
2022-10-08T01:26:26.797Z,10.98
2022-10-08T01:28:59.117Z,12.73
2022-10-08T01:31:36.058Z,11.90
2022-10-08T01:34:08.023Z,15.50
2022-10-08T01:36:43.330Z,14.90
2022-10-08T01:39:15.185Z,14.35
2022-10-08T01:41:44.172Z,17.40
2022-10-08T01:44:26.062Z,14.18
2022-10-08T01:46:59.241Z,13.70
2022-10-08T01:49:31.822Z,11.95
2022-10-08T01:52:07.927Z,14.15
2022-10-08T01:54:37.338Z,12.32
2022-10-08T01:57:05.867Z,13.57
2022-10-08T01:59:37.437Z,14.25
2022-10-08T02:02:22.931Z,15.68
2022-10-08T02:04:53.400Z,15.25
2022-10-08T02:07:32.226Z,12.80
2022-10-08T02:10:08.011Z,14.45
2022-10-08T02:12:36.385Z,19.08
2022-10-08T02:15:05.253Z,12.77
2022-10-08T02:17:57.601Z,15.10
2022-10-08T02:20:35.454Z,16.05
2022-10-08T02:23:29.919Z,15.65
2022-10-08T02:26:32.215Z,16.20
2022-10-08T02:29:05.471Z,18.77
2022-10-08T02:31:41.999Z,18.55
2022-10-08T02:34:16.713Z,16.05
2022-10-08T02:36:48.771Z,16.55
2022-10-08T02:39:16.931Z,14.32
2022-10-08T02:41:48.930Z,15.32
2022-10-08T02:44:20.891Z,15.77
2022-10-08T02:46:50.835Z,21.40
2022-10-08T02:49:24.319Z,16.08
2022-10-08T02:51:53.725Z,16.83
2022-10-08T02:54:23.304Z,14.80
2022-10-08T02:56:56.819Z,15.40
2022-10-08T02:59:25.218Z,14.95
2022-10-08T03:02:01.358Z,16.15
2022-10-08T03:04:32.823Z,16.37
2022-10-08T03:07:00.455Z,18.75
2022-10-08T03:09:31.811Z,16.02
2022-10-08T03:12:00.255Z,19.02
2022-10-08T03:14:28.772Z,17.30
2022-10-08T03:16:56.257Z,15.93
2022-10-08T03:19:23.979Z,15.32
2022-10-08T03:21:54.063Z,17.00
2022-10-08T03:24:21.568Z,15.15
2022-10-08T03:26:49.257Z,14.82
2022-10-08T03:29:16.611Z,16.10
2022-10-08T03:31:44.053Z,16.27
2022-10-08T03:34:11.685Z,16.42
2022-10-08T03:36:39.061Z,19.48
2022-10-08T03:39:06.402Z,16.85
2022-10-08T03:41:34.018Z,14.32
2022-10-08T03:44:01.492Z,17.05
2022-10-08T03:46:28.976Z,13.98
2022-10-08T03:48:56.695Z,15.57
2022-10-08T03:51:24.040Z,17.33
2022-10-08T03:53:51.396Z,15.50
2022-10-08T03:56:24.765Z,15.02
2022-10-08T03:58:57.483Z,16.33
2022-10-08T04:01:27.004Z,14.52
2022-10-08T04:03:54.740Z,12.32
2022-10-08T04:06:22.078Z,15.05
2022-10-08T04:08:50.954Z,14.15
2022-10-08T04:11:19.481Z,14.75
2022-10-08T04:13:46.802Z,12.27
2022-10-08T04:16:15.558Z,11.73
2022-10-08T04:18:44.084Z,14.75
2022-10-08T04:21:14.317Z,16.40
2022-10-08T04:23:42.689Z,14.05
2022-10-08T04:26:12.117Z,15.38
2022-10-08T04:28:41.041Z,14.80
2022-10-08T04:31:11.936Z,17.42
2022-10-08T04:33:39.877Z,12.70
2022-10-08T04:36:09.008Z,16.00
2022-10-08T04:38:36.425Z,14.52
2022-10-08T04:41:09.212Z,13.90
2022-10-08T04:43:37.609Z,14.85
2022-10-08T04:46:06.035Z,19.33
2022-10-08T04:48:33.408Z,14.80
2022-10-08T04:51:08.059Z,14.77
2022-10-08T04:53:38.349Z,14.57
2022-10-08T04:56:14.468Z,19.83
2022-10-08T04:58:42.284Z,19.15
2022-10-08T05:01:11.941Z,15.10
2022-10-08T05:03:41.376Z,18.02
2022-10-08T05:06:09.539Z,13.73
2022-10-08T05:08:36.974Z,16.67
2022-10-08T05:11:04.462Z,16.25
2022-10-08T05:13:32.682Z,14.82
2022-10-08T05:16:05.196Z,16.27
2022-10-08T05:18:33.747Z,19.58
2022-10-08T05:21:09.764Z,17.73
2022-10-08T05:23:37.663Z,16.40
2022-10-08T05:26:35.766Z,14.52
2022-10-08T05:29:10.985Z,17.20
2022-10-08T05:31:38.801Z,15.13
2022-10-08T05:34:06.282Z,16.27
2022-10-08T05:36:34.828Z,15.45
2022-10-08T05:39:04.737Z,13.93
2022-10-08T05:41:34.186Z,16.08
2022-10-08T05:44:04.935Z,13.07
2022-10-08T05:46:34.490Z,18.80
2022-10-08T05:49:04.181Z,18.05
2022-10-08T05:51:31.866Z,16.83
2022-10-08T05:54:00.286Z,17.48
2022-10-08T05:56:28.838Z,15.85
2022-10-08T05:58:56.234Z,15.43
2022-10-08T06:01:29.424Z,14.43
2022-10-08T06:04:08.144Z,16.58
2022-10-08T06:06:37.352Z,17.40
2022-10-08T06:09:05.812Z,17.35
2022-10-08T06:11:35.299Z,14.93
2022-10-08T06:14:03.291Z,15.85
2022-10-08T06:16:31.112Z,15.88
2022-10-08T06:18:58.629Z,14.05
2022-10-08T06:21:27.169Z,15.35
2022-10-08T06:24:05.477Z,16.58
2022-10-08T06:26:36.445Z,15.73
2022-10-08T06:29:10.051Z,18.27
2022-10-08T06:31:37.460Z,20.30
2022-10-08T06:34:05.250Z,17.98
2022-10-08T06:36:33.794Z,18.48
2022-10-08T06:39:11.172Z,17.50
2022-10-08T06:41:38.828Z,17.17
2022-10-08T06:44:08.150Z,18.33
2022-10-08T06:46:35.751Z,16.85
2022-10-08T06:49:05.997Z,19.87
2022-10-08T06:51:33.827Z,20.05
2022-10-08T06:54:07.358Z,22.37
2022-10-08T06:59:05.223Z,20.42
2022-10-08T07:01:34.175Z,19.73
2022-10-08T07:04:02.946Z,21.77
2022-10-08T07:06:30.297Z,23.55
2022-10-08T07:08:59.464Z,21.67
2022-10-08T07:11:28.081Z,22.55
2022-10-08T07:13:56.411Z,19.40
2022-10-08T07:16:25.406Z,21.62
2022-10-08T07:18:54.600Z,21.25
2022-10-08T07:21:22.825Z,19.37
2022-10-08T07:23:50.770Z,20.60
2022-10-08T07:26:20.765Z,19.20
2022-10-08T07:28:59.026Z,18.55
2022-10-08T07:31:29.713Z,20.52
2022-10-08T07:33:58.262Z,17.37
2022-10-08T07:36:27.217Z,21.33
2022-10-08T07:39:00.000Z,18.52
2022-10-08T07:41:28.088Z,19.75
2022-10-08T07:43:59.904Z,17.15
2022-10-08T07:46:28.536Z,18.12
2022-10-08T07:48:59.577Z,17.08
2022-10-08T07:51:29.208Z,25.33
2022-10-08T07:54:02.114Z,19.83
2022-10-08T07:56:32.731Z,17.62
2022-10-08T07:59:01.104Z,16.50
2022-10-08T08:01:30.218Z,18.30
2022-10-08T08:04:03.156Z,20.70
2022-10-08T08:06:31.915Z,17.12
2022-10-08T08:09:00.835Z,18.12
2022-10-08T08:11:29.303Z,17.70
2022-10-08T08:13:57.182Z,17.83
2022-10-08T08:16:26.658Z,16.50
2022-10-08T08:18:56.437Z,16.00
2022-10-08T08:21:29.276Z,16.58
2022-10-08T08:23:58.301Z,17.12
2022-10-08T08:26:32.759Z,17.10
2022-10-08T08:29:19.329Z,18.35
2022-10-08T08:31:48.464Z,14.75
2022-10-08T08:34:18.923Z,31.70
2022-10-08T08:36:48.909Z,16.85
2022-10-08T08:39:25.770Z,25.50
2022-10-08T08:42:14.765Z,17.77
2022-10-08T08:44:43.940Z,15.88
2022-10-08T08:47:20.504Z,17.33
2022-10-08T08:49:57.445Z,18.23
2022-10-08T08:52:27.214Z,17.08
2022-10-08T08:54:55.129Z,16.27
2022-10-08T08:57:38.546Z,17.80
2022-10-08T09:00:19.188Z,19.60
2022-10-08T09:02:56.298Z,15.50
2022-10-08T09:05:25.336Z,17.60
2022-10-08T09:07:58.853Z,17.12
2022-10-08T09:10:42.513Z,19.30
2022-10-08T09:13:14.754Z,26.23
2022-10-08T09:15:42.923Z,20.08
2022-10-08T09:18:13.065Z,19.40
2022-10-08T09:20:41.045Z,26.60
2022-10-08T09:23:21.388Z,16.80
2022-10-08T09:25:53.475Z,15.68
2022-10-08T09:28:52.220Z,14.77
2022-10-08T09:31:42.024Z,15.63
2022-10-08T09:34:18.791Z,17.70
2022-10-08T09:36:50.983Z,20.08
2022-10-08T09:39:22.824Z,16.48
2022-10-08T09:42:08.364Z,14.00
2022-10-08T09:45:00.683Z,19.85
2022-10-08T09:47:28.169Z,13.85
2022-10-08T09:50:06.893Z,13.10
2022-10-08T09:52:35.278Z,13.20
2022-10-08T09:55:08.358Z,14.05
2022-10-08T09:57:44.137Z,14.45
2022-10-08T10:00:39.449Z,10.02
2022-10-08T10:03:18.124Z,13.32
2022-10-08T10:05:51.279Z,22.98
2022-10-08T10:08:48.525Z,14.40
2022-10-08T10:11:37.046Z,11.27
2022-10-08T10:14:11.049Z,11.93
2022-10-08T10:16:43.196Z,11.48
2022-10-08T10:19:16.542Z,11.18
2022-10-08T10:21:54.695Z,9.57
2022-10-08T10:24:30.260Z,9.70
2022-10-08T10:27:03.578Z,11.30
2022-10-08T10:29:57.327Z,10.35
2022-10-08T10:32:32.021Z,8.43
2022-10-08T10:35:06.561Z,10.52
2022-10-08T10:37:40.042Z,8.32
2022-10-08T10:40:25.786Z,8.52
2022-10-08T10:42:59.722Z,9.02
2022-10-08T10:47:56.111Z,8.20
2022-10-08T10:50:50.723Z,11.55
2022-10-08T10:53:49.495Z,7.57
2022-10-08T10:56:18.811Z,8.27
2022-10-08T10:59:07.767Z,8.93
2022-10-08T11:01:53.291Z,10.20
2022-10-08T11:04:32.346Z,5.87
2022-10-08T11:07:03.214Z,7.10
2022-10-08T11:09:52.836Z,6.28
2022-10-08T11:12:39.183Z,7.10
2022-10-08T11:15:25.619Z,5.03
2022-10-08T11:18:02.273Z,8.07
2022-10-08T11:20:51.364Z,10.48
2022-10-08T11:23:30.856Z,9.43
2022-10-08T11:29:18.011Z,6.70
2022-10-08T11:31:46.685Z,7.87
2022-10-08T11:34:29.883Z,6.37
2022-10-08T11:37:22.372Z,6.85
2022-10-08T11:40:21.675Z,9.77
2022-10-08T11:43:12.717Z,8.20
2022-10-08T11:45:41.758Z,7.30
2022-10-08T11:48:42.019Z,6.87
2022-10-08T11:51:21.958Z,6.93
2022-10-08T11:54:20.640Z,7.28
2022-10-08T11:56:53.259Z,6.55
2022-10-08T11:59:45.153Z,7.80
2022-10-08T12:02:26.154Z,9.25
2022-10-08T12:04:56.273Z,9.40
2022-10-08T12:07:37.572Z,7.43
2022-10-08T12:10:05.103Z,6.37
2022-10-08T12:12:50.923Z,10.68
2022-10-08T12:15:24.615Z,8.10
2022-10-08T12:17:57.312Z,7.67
2022-10-08T12:20:32.882Z,8.18
2022-10-08T12:23:34.514Z,6.35
2022-10-08T12:26:02.848Z,8.02
2022-10-08T12:28:30.213Z,9.30
2022-10-08T12:31:00.452Z,6.70
2022-10-08T12:33:28.924Z,7.18
2022-10-08T12:35:59.239Z,8.43
2022-10-08T12:39:44.887Z,8.25
2022-10-08T12:42:26.503Z,6.75
2022-10-08T12:44:56.867Z,6.57
2022-10-08T12:47:36.427Z,7.50
2022-10-08T12:50:03.687Z,6.68
2022-10-08T12:52:35.483Z,6.90
2022-10-08T12:55:04.388Z,7.43
2022-10-08T12:57:39.386Z,7.90
2022-10-08T13:00:29.401Z,6.78
2022-10-08T13:03:12.833Z,8.73
2022-10-08T13:05:43.327Z,8.02
2022-10-08T13:08:17.712Z,7.22
2022-10-08T13:10:45.075Z,7.30
2022-10-08T13:13:35.803Z,7.10
2022-10-08T13:16:05.336Z,10.27
2022-10-08T13:18:34.704Z,8.00
2022-10-08T13:21:04.540Z,8.98
2022-10-08T13:23:35.606Z,5.50
2022-10-08T13:26:03.280Z,8.13
2022-10-08T13:28:58.719Z,11.07
2022-10-08T13:31:24.465Z,6.45
2022-10-08T13:33:51.990Z,7.40
2022-10-08T13:36:22.049Z,6.68
2022-10-08T13:38:49.471Z,7.22
2022-10-08T13:41:23.544Z,6.47
2022-10-08T13:43:51.414Z,9.00
2022-10-08T13:46:18.897Z,10.60
2022-10-08T13:48:46.313Z,7.93
2022-10-08T13:51:14.079Z,8.82
2022-10-08T13:53:45.482Z,8.48
2022-10-08T13:56:12.879Z,7.70
2022-10-08T13:58:40.560Z,7.07
2022-10-08T14:01:07.991Z,9.13
2022-10-08T14:03:35.674Z,7.72
2022-10-08T14:06:03.097Z,8.40
2022-10-08T14:08:31.437Z,8.38
2022-10-08T14:11:00.087Z,10.52
2022-10-08T14:13:29.353Z,7.50
2022-10-08T14:15:56.765Z,8.23
2022-10-08T14:18:24.418Z,8.45
2022-10-08T14:20:51.926Z,6.32
2022-10-08T14:23:20.312Z,9.52
2022-10-08T14:25:48.108Z,9.35
2022-10-08T14:28:15.553Z,8.07
2022-10-08T14:30:43.001Z,8.77
2022-10-08T14:33:11.783Z,7.40
2022-10-08T14:35:39.708Z,8.63
2022-10-08T14:38:08.623Z,7.28
2022-10-08T14:40:36.382Z,10.25
2022-10-08T14:43:03.728Z,8.20
2022-10-08T14:45:31.145Z,7.10
2022-10-08T14:47:58.782Z,9.52
2022-10-08T14:50:26.169Z,7.57
2022-10-08T14:52:53.500Z,11.10
2022-10-08T14:55:21.199Z,10.32
2022-10-08T14:57:48.550Z,7.12
2022-10-08T15:00:16.267Z,11.20
2022-10-08T15:02:43.882Z,7.97
2022-10-08T15:05:11.280Z,9.50
2022-10-08T15:07:38.781Z,9.35
2022-10-08T15:10:06.846Z,10.40
2022-10-08T15:12:34.471Z,16.25
2022-10-08T15:15:01.902Z,13.88
2022-10-08T15:17:29.545Z,9.77
2022-10-08T15:19:57.720Z,9.13
2022-10-08T15:22:25.070Z,9.00
2022-10-08T15:24:52.672Z,9.93
2022-10-08T15:27:21.092Z,8.25
2022-10-08T15:29:48.533Z,9.32
2022-10-08T15:32:16.165Z,9.38
2022-10-08T15:34:43.595Z,8.50
2022-10-08T15:37:10.937Z,7.18
2022-10-08T15:39:38.532Z,10.93
2022-10-08T15:42:06.167Z,7.68
2022-10-08T15:44:34.474Z,12.55
2022-10-08T15:47:06.053Z,11.98
2022-10-08T15:49:38.997Z,8.77
2022-10-08T15:52:26.553Z,7.95
2022-10-08T15:54:53.968Z,9.80
2022-10-08T15:57:21.679Z,7.53
2022-10-08T15:59:49.086Z,7.60
2022-10-08T16:02:17.838Z,11.30
2022-10-08T16:04:47.327Z,12.45
2022-10-08T16:07:15.113Z,14.63
2022-10-08T16:09:42.631Z,20.95
2022-10-08T16:12:10.440Z,16.10
2022-10-08T16:14:37.778Z,18.33
2022-10-08T16:17:05.230Z,37.70
2022-10-08T16:19:33.214Z,25.33
2022-10-08T16:22:01.347Z,21.48
2022-10-08T16:24:28.817Z,24.50
2022-10-08T16:26:56.484Z,21.87
2022-10-08T16:29:23.836Z,20.98
2022-10-08T16:31:51.236Z,21.48
2022-10-08T16:34:21.262Z,15.85
2022-10-08T16:36:48.931Z,12.77
2022-10-08T16:39:18.358Z,15.90
2022-10-08T16:41:46.200Z,21.40
2022-10-08T16:44:15.962Z,17.58
2022-10-08T16:46:45.597Z,18.70
2022-10-08T16:49:23.732Z,15.40
2022-10-08T16:51:58.045Z,20.00
2022-10-08T16:54:26.591Z,19.65
2022-10-08T16:56:54.426Z,24.73
2022-10-08T16:59:24.033Z,30.83
2022-10-08T17:01:54.250Z,31.27
2022-10-08T17:04:23.636Z,39.33
2022-10-08T17:06:51.626Z,35.40
2022-10-08T17:09:20.692Z,29.67
2022-10-08T17:11:48.507Z,34.13
2022-10-08T17:14:16.133Z,30.02
2022-10-08T17:16:45.140Z,29.60
2022-10-08T17:19:12.707Z,40.15
2022-10-08T17:21:40.487Z,35.15
2022-10-08T17:24:08.655Z,32.58
2022-10-08T17:26:36.136Z,35.08
2022-10-08T17:29:08.651Z,23.25
2022-10-08T17:31:37.145Z,18.90
2022-10-08T17:34:04.958Z,19.67
2022-10-08T17:36:34.961Z,18.35
2022-10-08T17:39:06.015Z,19.70
2022-10-08T17:41:38.977Z,15.07
2022-10-08T17:44:08.171Z,16.17
2022-10-08T17:46:38.746Z,17.70
2022-10-08T17:49:07.857Z,19.48
2022-10-08T17:51:35.973Z,17.25
2022-10-08T17:54:07.335Z,14.57
2022-10-08T17:56:35.167Z,18.00
2022-10-08T17:59:03.521Z,18.55
2022-10-08T18:01:33.785Z,17.35
2022-10-08T18:04:03.838Z,17.62
2022-10-08T18:06:32.817Z,21.15
2022-10-08T18:09:03.179Z,16.30
2022-10-08T18:11:32.891Z,18.75
2022-10-08T18:14:02.174Z,18.62
2022-10-08T18:16:29.684Z,17.65
2022-10-08T18:18:57.327Z,16.30
2022-10-08T18:21:24.964Z,16.45
2022-10-08T18:23:52.788Z,15.70
2022-10-08T18:26:27.719Z,19.52
2022-10-08T18:31:26.176Z,18.55
2022-10-08T18:34:05.507Z,15.30
2022-10-08T18:36:36.536Z,16.20
2022-10-08T18:39:10.667Z,17.70
2022-10-08T18:41:41.488Z,15.95
2022-10-08T18:44:15.904Z,18.15
2022-10-08T18:49:15.829Z,17.90
2022-10-08T18:51:44.941Z,19.40
2022-10-08T18:54:13.344Z,16.67
2022-10-08T18:56:42.382Z,19.58
2022-10-08T18:59:15.043Z,18.17
2022-10-08T19:01:45.514Z,18.15
2022-10-08T19:04:18.237Z,18.92
2022-10-08T19:07:05.457Z,16.83
2022-10-08T19:09:33.152Z,18.50
2022-10-08T19:12:01.237Z,16.85
2022-10-08T19:14:29.271Z,17.48
2022-10-08T19:16:56.639Z,17.52
2022-10-08T19:19:27.426Z,16.92
2022-10-08T19:21:55.947Z,15.93
2022-10-08T19:24:25.400Z,17.73
2022-10-08T19:26:53.944Z,15.73
2022-10-08T19:29:23.500Z,17.12
2022-10-08T19:31:51.675Z,17.65
2022-10-08T19:34:22.113Z,15.88
2022-10-08T19:36:49.974Z,16.02
2022-10-08T19:39:21.019Z,15.68
2022-10-08T19:41:49.519Z,15.27
2022-10-08T19:44:17.781Z,15.90
2022-10-08T19:46:46.586Z,14.45
2022-10-08T19:49:14.928Z,14.20
2022-10-08T19:51:42.608Z,18.05
2022-10-08T19:54:10.847Z,16.48
2022-10-08T19:56:38.476Z,16.33
2022-10-08T19:59:06.254Z,15.65
2022-10-08T20:01:39.544Z,15.40
2022-10-08T20:04:08.216Z,15.27
2022-10-08T20:06:39.134Z,17.08
2022-10-08T20:09:10.144Z,18.83
2022-10-08T20:11:38.037Z,21.05
2022-10-08T20:14:05.807Z,17.25
2022-10-08T20:16:36.710Z,18.60
2022-10-08T20:19:06.695Z,16.52
2022-10-08T20:21:37.022Z,16.37
2022-10-08T20:24:05.140Z,15.98
2022-10-08T20:26:34.848Z,15.05
2022-10-08T20:29:14.179Z,17.77
2022-10-08T20:31:47.502Z,15.43
2022-10-08T20:34:18.143Z,16.42
2022-10-08T20:36:46.333Z,14.38
2022-10-08T20:39:14.739Z,15.90
2022-10-08T20:41:42.809Z,16.15
2022-10-08T20:44:10.568Z,17.92
2022-10-08T20:46:38.566Z,14.55
2022-10-08T20:49:06.625Z,16.45
2022-10-08T20:51:34.142Z,15.38
2022-10-08T20:54:07.098Z,13.62
2022-10-08T20:56:39.543Z,14.80
2022-10-08T20:59:08.630Z,14.65
2022-10-08T21:01:38.462Z,16.52
2022-10-08T21:04:07.105Z,12.77
2022-10-08T21:06:45.864Z,13.98
2022-10-08T21:09:14.210Z,13.43
2022-10-08T21:11:42.364Z,13.43
2022-10-08T21:14:10.062Z,15.30
2022-10-08T21:16:39.654Z,16.40
2022-10-08T21:19:14.556Z,18.00
2022-10-08T21:21:42.471Z,14.10
2022-10-08T21:24:09.897Z,13.30
2022-10-08T21:26:39.704Z,15.00
2022-10-08T21:29:10.006Z,17.15
2022-10-08T21:31:39.272Z,15.25
2022-10-08T21:34:07.304Z,14.07
2022-10-08T21:36:37.505Z,11.98
2022-10-08T21:39:06.787Z,14.00
2022-10-08T21:41:36.700Z,14.68
2022-10-08T21:44:06.523Z,14.00
2022-10-08T21:46:37.028Z,14.00
2022-10-08T21:49:11.295Z,10.95
2022-10-08T21:51:39.075Z,15.52
2022-10-08T21:54:06.744Z,13.38
2022-10-08T21:56:36.846Z,15.07
2022-10-08T21:59:05.908Z,15.95
2022-10-08T22:01:42.677Z,13.77
2022-10-08T22:04:12.961Z,14.60
2022-10-08T22:06:45.395Z,12.57
2022-10-08T22:09:17.751Z,16.10
2022-10-08T22:11:45.237Z,13.50
2022-10-08T22:14:12.960Z,12.02
2022-10-08T22:16:40.388Z,14.20
2022-10-08T22:19:07.836Z,11.65
2022-10-08T22:21:35.495Z,14.40
2022-10-08T22:24:03.375Z,14.10
2022-10-08T22:26:33.274Z,12.75
2022-10-08T22:29:01.227Z,14.15
2022-10-08T22:31:28.797Z,12.88
2022-10-08T22:33:56.235Z,14.18
2022-10-08T22:36:27.606Z,15.15
2022-10-08T22:38:55.344Z,14.18
2022-10-08T22:41:25.081Z,18.60
2022-10-08T22:43:53.597Z,16.52
2022-10-08T22:46:23.993Z,20.25
2022-10-08T22:48:51.520Z,15.10
2022-10-08T22:51:21.651Z,15.88
2022-10-08T22:53:49.074Z,18.35
2022-10-08T22:56:19.411Z,15.68
2022-10-08T22:58:47.997Z,18.62
2022-10-08T23:01:20.628Z,14.48
2022-10-08T23:03:48.920Z,17.58
2022-10-08T23:06:16.273Z,18.00
2022-10-08T23:08:45.300Z,17.87
2022-10-08T23:11:14.444Z,16.85
2022-10-08T23:13:45.527Z,17.33
2022-10-08T23:16:15.251Z,16.65
2022-10-08T23:18:44.802Z,15.57
2022-10-08T23:21:17.131Z,14.68
2022-10-08T23:23:46.316Z,15.93
2022-10-08T23:26:14.574Z,14.43
2022-10-08T23:28:43.001Z,16.25
2022-10-08T23:31:13.228Z,16.20
2022-10-08T23:33:43.224Z,19.00
2022-10-08T23:36:13.832Z,14.82
2022-10-08T23:38:41.565Z,14.55
2022-10-08T23:41:10.379Z,13.57
2022-10-08T23:43:43.233Z,14.82
2022-10-08T23:46:12.521Z,15.77
2022-10-08T23:48:40.455Z,15.80
2022-10-08T23:51:08.814Z,16.55
2022-10-08T23:53:36.622Z,15.77
2022-10-08T23:56:05.076Z,17.02
2022-10-08T23:58:32.784Z,15.15
